sensor_id;sensor_type;location;lat;lon;timestamp;pressure;altitude;pressure_sealevel;temperature;humidity
66486;BME280;53303;47.476;8.084;2023-08-21T00:01:41;95932.63;;;25.63;55.13
66486;BME280;53303;47.476;8.084;2023-08-21T00:04:07;95929.25;;;25.65;55.16
66486;BME280;53303;47.476;8.084;2023-08-21T00:06:32;95932.31;;;25.67;55.02
66486;BME280;53303;47.476;8.084;2023-08-21T00:08:57;95920.44;;;25.61;55.09
66486;BME280;53303;47.476;8.084;2023-08-21T00:11:23;95915.38;;;25.59;55.01
66486;BME280;53303;47.476;8.084;2023-08-21T00:13:48;95919.59;;;25.66;55.47
66486;BME280;53303;47.476;8.084;2023-08-21T00:16:16;95919.06;;;25.68;55.28
66486;BME280;53303;47.476;8.084;2023-08-21T00:18:41;95916.81;;;25.66;55.42
66486;BME280;53303;47.476;8.084;2023-08-21T00:21:07;95907.63;;;25.52;55.43
66486;BME280;53303;47.476;8.084;2023-08-21T00:23:32;95916.06;;;25.65;55.45
66486;BME280;53303;47.476;8.084;2023-08-21T00:25:58;95911.53;;;25.62;55.24
66486;BME280;53303;47.476;8.084;2023-08-21T00:28:23;95910.78;;;25.62;55.18
66486;BME280;53303;47.476;8.084;2023-08-21T00:30:49;95909.38;;;25.55;55.17
66486;BME280;53303;47.476;8.084;2023-08-21T00:33:14;95921.13;;;25.67;55.46
66486;BME280;53303;47.476;8.084;2023-08-21T00:35:39;95913.91;;;25.58;55.69
66486;BME280;53303;47.476;8.084;2023-08-21T00:38:07;95919.06;;;25.68;55.07
66486;BME280;53303;47.476;8.084;2023-08-21T00:40:33;95916.16;;;25.60;55.34
66486;BME280;53303;47.476;8.084;2023-08-21T00:42:58;95907.00;;;25.59;55.41
66486;BME280;53303;47.476;8.084;2023-08-21T00:45:28;95919.81;;;25.68;55.59
66486;BME280;53303;47.476;8.084;2023-08-21T00:47:53;95909.50;;;25.63;55.41
66486;BME280;53303;47.476;8.084;2023-08-21T00:50:19;95913.50;;;25.68;55.53
66486;BME280;53303;47.476;8.084;2023-08-21T00:52:45;95896.91;;;25.56;55.57
66486;BME280;53303;47.476;8.084;2023-08-21T00:55:12;95912.22;;;25.69;55.57
66486;BME280;53303;47.476;8.084;2023-08-21T00:57:38;95892.91;;;25.52;55.23
66486;BME280;53303;47.476;8.084;2023-08-21T01:00:05;95897.66;;;25.57;55.32
66486;BME280;53303;47.476;8.084;2023-08-21T01:02:33;95908.63;;;25.68;55.47
66486;BME280;53303;47.476;8.084;2023-08-21T01:04:58;95892.59;;;25.55;55.58
66486;BME280;53303;47.476;8.084;2023-08-21T01:07:24;95901.41;;;25.59;55.60
66486;BME280;53303;47.476;8.084;2023-08-21T01:10:09;95923.69;;;25.65;55.75
66486;BME280;53303;47.476;8.084;2023-08-21T01:12:44;95894.81;;;25.43;55.22
66486;BME280;53303;47.476;8.084;2023-08-21T01:15:14;95917.34;;;25.64;55.81
66486;BME280;53303;47.476;8.084;2023-08-21T01:17:40;95904.75;;;25.58;55.63
66486;BME280;53303;47.476;8.084;2023-08-21T01:20:08;95910.31;;;25.58;55.50
66486;BME280;53303;47.476;8.084;2023-08-21T01:22:39;95927.25;;;25.65;55.67
66486;BME280;53303;47.476;8.084;2023-08-21T01:25:06;95925.94;;;25.67;55.59
66486;BME280;53303;47.476;8.084;2023-08-21T01:27:35;95930.25;;;25.68;55.38
66486;BME280;53303;47.476;8.084;2023-08-21T01:30:03;95924.00;;;25.61;55.75
66486;BME280;53303;47.476;8.084;2023-08-21T01:32:40;95929.25;;;25.65;55.68
66486;BME280;53303;47.476;8.084;2023-08-21T01:35:09;95934.63;;;25.63;55.76
66486;BME280;53303;47.476;8.084;2023-08-21T01:37:39;95923.25;;;25.61;55.55
66486;BME280;53303;47.476;8.084;2023-08-21T01:40:05;95928.00;;;25.66;55.77
66486;BME280;53303;47.476;8.084;2023-08-21T01:42:34;95934.31;;;25.67;55.47
66486;BME280;53303;47.476;8.084;2023-08-21T01:45:01;95931.84;;;25.63;55.81
66486;BME280;53303;47.476;8.084;2023-08-21T01:47:26;95923.78;;;25.59;55.64
66486;BME280;53303;47.476;8.084;2023-08-21T01:49:54;95927.03;;;25.63;55.60
66486;BME280;53303;47.476;8.084;2023-08-21T01:52:22;95928.00;;;25.66;55.83
66486;BME280;53303;47.476;8.084;2023-08-21T01:54:52;95933.56;;;25.66;55.83
66486;BME280;53303;47.476;8.084;2023-08-21T01:57:17;95910.53;;;25.46;55.67
66486;BME280;53303;47.476;8.084;2023-08-21T01:59:43;95903.75;;;25.42;55.87
66486;BME280;53303;47.476;8.084;2023-08-21T02:02:08;95932.16;;;25.59;55.88
66486;BME280;53303;47.476;8.084;2023-08-21T02:04:36;95924.09;;;25.56;55.66
66486;BME280;53303;47.476;8.084;2023-08-21T02:07:01;95929.56;;;25.61;55.87
66486;BME280;53303;47.476;8.084;2023-08-21T02:09:27;95939.69;;;25.64;56.02
66486;BME280;53303;47.476;8.084;2023-08-21T02:11:53;95929.34;;;25.59;55.83
66486;BME280;53303;47.476;8.084;2023-08-21T02:14:18;95930.13;;;25.60;55.78
66486;BME280;53303;47.476;8.084;2023-08-21T02:16:44;95933.38;;;25.64;56.08
66486;BME280;53303;47.476;8.084;2023-08-21T02:19:11;95918.50;;;25.56;55.89
66486;BME280;53303;47.476;8.084;2023-08-21T02:21:40;95924.31;;;25.58;55.79
66486;BME280;53303;47.476;8.084;2023-08-21T02:24:06;95925.81;;;25.59;55.85
66486;BME280;53303;47.476;8.084;2023-08-21T02:26:31;95919.47;;;25.58;56.12
66486;BME280;53303;47.476;8.084;2023-08-21T02:28:57;95928.50;;;25.64;56.05
66486;BME280;53303;47.476;8.084;2023-08-21T02:31:23;95927.03;;;25.63;56.06
66486;BME280;53303;47.476;8.084;2023-08-21T02:33:48;95917.75;;;25.55;56.13
66486;BME280;53303;47.476;8.084;2023-08-21T02:36:15;95914.00;;;25.53;55.83
66486;BME280;53303;47.476;8.084;2023-08-21T02:38:43;95924.22;;;25.63;55.87
66486;BME280;53303;47.476;8.084;2023-08-21T02:41:08;95918.66;;;25.63;56.02
66486;BME280;53303;47.476;8.084;2023-08-21T02:43:34;95906.03;;;25.57;55.80
66486;BME280;53303;47.476;8.084;2023-08-21T02:45:59;95901.50;;;25.54;56.09
66486;BME280;53303;47.476;8.084;2023-08-21T02:48:25;95897.22;;;25.53;56.05
66486;BME280;53303;47.476;8.084;2023-08-21T02:50:50;95906.78;;;25.57;56.10
66486;BME280;53303;47.476;8.084;2023-08-21T02:53:16;95912.16;;;25.55;55.86
66486;BME280;53303;47.476;8.084;2023-08-21T02:55:41;95906.34;;;25.53;56.21
66486;BME280;53303;47.476;8.084;2023-08-21T02:58:07;95919.19;;;25.62;55.79
66486;BME280;53303;47.476;8.084;2023-08-21T03:00:32;95918.41;;;25.61;56.31
66486;BME280;53303;47.476;8.084;2023-08-21T03:02:57;95913.59;;;25.62;56.08
66486;BME280;53303;47.476;8.084;2023-08-21T03:05:25;95909.28;;;25.61;56.05
66486;BME280;53303;47.476;8.084;2023-08-21T03:07:50;95912.16;;;25.55;55.90
66486;BME280;53303;47.476;8.084;2023-08-21T03:10:16;95901.09;;;25.50;56.25
66486;BME280;53303;47.476;8.084;2023-08-21T03:12:41;95913.91;;;25.58;56.24
66486;BME280;53303;47.476;8.084;2023-08-21T03:15:09;95889.47;;;25.45;56.10
66486;BME280;53303;47.476;8.084;2023-08-21T03:17:37;95911.41;;;25.55;56.29
66486;BME280;53303;47.476;8.084;2023-08-21T03:20:03;95918.97;;;25.60;55.87
66486;BME280;53303;47.476;8.084;2023-08-21T03:22:30;95917.66;;;25.61;56.20
66486;BME280;53303;47.476;8.084;2023-08-21T03:24:56;95920.22;;;25.59;55.94
66486;BME280;53303;47.476;8.084;2023-08-21T03:27:22;95925.28;;;25.60;56.10
66486;BME280;53303;47.476;8.084;2023-08-21T03:29:48;95918.97;;;25.60;56.32
66486;BME280;53303;47.476;8.084;2023-08-21T03:32:17;95911.09;;;25.58;55.97
66486;BME280;53303;47.476;8.084;2023-08-21T03:34:43;95920.22;;;25.59;56.31
66486;BME280;53303;47.476;8.084;2023-08-21T03:37:09;95923.03;;;25.59;56.49
66486;BME280;53303;47.476;8.084;2023-08-21T03:39:35;95910.44;;;25.52;56.41
66486;BME280;53303;47.476;8.084;2023-08-21T03:42:01;95914.66;;;25.59;56.44
66486;BME280;53303;47.476;8.084;2023-08-21T03:44:26;95921.50;;;25.58;56.38
66486;BME280;53303;47.476;8.084;2023-08-21T03:46:54;95910.66;;;25.54;56.34
66486;BME280;53303;47.476;8.084;2023-08-21T03:49:19;95892.81;;;25.44;56.53
66486;BME280;53303;47.476;8.084;2023-08-21T03:51:47;95910.22;;;25.50;56.30
66486;BME280;53303;47.476;8.084;2023-08-21T03:54:12;95907.41;;;25.50;56.42
66486;BME280;53303;47.476;8.084;2023-08-21T03:56:38;95922.38;;;25.53;56.53
66486;BME280;53303;47.476;8.084;2023-08-21T03:59:03;95929.16;;;25.57;56.13
66486;BME280;53303;47.476;8.084;2023-08-21T04:01:29;95912.66;;;25.40;56.05
66486;BME280;53303;47.476;8.084;2023-08-21T04:03:57;95927.81;;;25.45;55.68
66486;BME280;53303;47.476;8.084;2023-08-21T04:06:22;95930.59;;;25.45;56.11
66486;BME280;53303;47.476;8.084;2023-08-21T04:08:48;95913.63;;;25.24;56.08
66486;BME280;53303;47.476;8.084;2023-08-21T04:11:15;95932.06;;;25.33;56.32
66486;BME280;53303;47.476;8.084;2023-08-21T04:13:41;95934.41;;;25.29;56.68
66486;BME280;53303;47.476;8.084;2023-08-21T04:16:06;95937.53;;;25.25;56.54
66486;BME280;53303;47.476;8.084;2023-08-21T04:18:33;95933.50;;;25.20;56.95
66486;BME280;53303;47.476;8.084;2023-08-21T04:20:58;95926.72;;;25.16;56.86
66486;BME280;53303;47.476;8.084;2023-08-21T04:23:26;95930.47;;;25.18;57.03
66486;BME280;53303;47.476;8.084;2023-08-21T04:25:52;95930.78;;;25.15;57.16
66486;BME280;53303;47.476;8.084;2023-08-21T04:28:17;95942.41;;;25.19;57.09
66486;BME280;53303;47.476;8.084;2023-08-21T04:30:43;95947.41;;;25.26;57.22
66486;BME280;53303;47.476;8.084;2023-08-21T04:33:08;95953.00;;;25.26;57.03
66486;BME280;53303;47.476;8.084;2023-08-21T04:35:38;95948.91;;;25.27;56.77
66486;BME280;53303;47.476;8.084;2023-08-21T04:38:06;95944.66;;;25.20;56.88
66486;BME280;53303;47.476;8.084;2023-08-21T04:40:32;95942.13;;;25.22;57.12
66486;BME280;53303;47.476;8.084;2023-08-21T04:43:00;95936.38;;;25.15;56.92
66486;BME280;53303;47.476;8.084;2023-08-21T04:45:25;95964.41;;;25.28;57.20
66486;BME280;53303;47.476;8.084;2023-08-21T04:47:51;95960.84;;;25.27;57.09
66486;BME280;53303;47.476;8.084;2023-08-21T04:50:16;95960.88;;;25.22;57.06
66486;BME280;53303;47.476;8.084;2023-08-21T04:52:42;95958.88;;;25.22;56.94
66486;BME280;53303;47.476;8.084;2023-08-21T04:55:08;95966.41;;;25.27;56.71
66486;BME280;53303;47.476;8.084;2023-08-21T04:57:38;95954.13;;;25.17;56.80
66486;BME280;53303;47.476;8.084;2023-08-21T05:00:03;95950.63;;;25.11;56.71
66486;BME280;53303;47.476;8.084;2023-08-21T05:02:29;95965.06;;;25.15;56.54
66486;BME280;53303;47.476;8.084;2023-08-21T05:04:55;95965.19;;;25.04;56.97
66486;BME280;53303;47.476;8.084;2023-08-21T05:07:21;95943.41;;;24.83;56.99
66486;BME280;53303;47.476;8.084;2023-08-21T05:09:46;95952.84;;;24.80;57.51
66486;BME280;53303;47.476;8.084;2023-08-21T05:12:14;95964.75;;;24.81;57.52
66486;BME280;53303;47.476;8.084;2023-08-21T05:14:39;95961.59;;;24.71;57.96
66486;BME280;53303;47.476;8.084;2023-08-21T05:17:07;95971.75;;;24.68;58.00
66486;BME280;53303;47.476;8.084;2023-08-21T05:19:32;95977.03;;;24.72;58.32
66486;BME280;53303;47.476;8.084;2023-08-21T05:21:58;95981.63;;;24.69;58.68
66486;BME280;53303;47.476;8.084;2023-08-21T05:24:23;95978.41;;;24.65;58.63
66486;BME280;53303;47.476;8.084;2023-08-21T05:26:49;95959.53;;;24.47;59.30
66486;BME280;53303;47.476;8.084;2023-08-21T05:29:14;95947.13;;;24.23;59.24
66486;BME280;53303;47.476;8.084;2023-08-21T05:31:40;95966.72;;;24.42;59.54
66486;BME280;53303;47.476;8.084;2023-08-21T05:34:05;95989.66;;;24.54;59.41
66486;BME280;53303;47.476;8.084;2023-08-21T05:36:30;95978.38;;;24.41;60.05
66486;BME280;53303;47.476;8.084;2023-08-21T05:38:56;95987.44;;;24.47;60.19
66486;BME280;53303;47.476;8.084;2023-08-21T05:41:22;95991.28;;;24.44;60.29
66486;BME280;53303;47.476;8.084;2023-08-21T05:43:47;95970.66;;;24.28;60.46
66486;BME280;53303;47.476;8.084;2023-08-21T05:46:14;95989.06;;;24.37;60.33
66486;BME280;53303;47.476;8.084;2023-08-21T05:48:39;95991.09;;;24.36;60.45
66486;BME280;53303;47.476;8.084;2023-08-21T05:51:08;95977.28;;;24.25;60.71
66486;BME280;53303;47.476;8.084;2023-08-21T05:53:34;95974.03;;;24.21;61.21
66486;BME280;53303;47.476;8.084;2023-08-21T05:56:00;95978.56;;;24.24;61.20
66486;BME280;53303;47.476;8.084;2023-08-21T05:58:30;95973.03;;;24.18;61.42
66486;BME280;53303;47.476;8.084;2023-08-21T06:00:58;95983.16;;;24.21;61.58
66486;BME280;53303;47.476;8.084;2023-08-21T06:03:24;95991.16;;;24.30;61.70
66486;BME280;53303;47.476;8.084;2023-08-21T06:05:53;95996.00;;;24.30;62.21
66486;BME280;53303;47.476;8.084;2023-08-21T06:08:18;95992.97;;;24.28;62.13
66486;BME280;53303;47.476;8.084;2023-08-21T06:10:44;95981.63;;;24.20;62.28
66486;BME280;53303;47.476;8.084;2023-08-21T06:13:11;95946.16;;;23.96;62.27
66486;BME280;53303;47.476;8.084;2023-08-21T06:15:37;95988.97;;;24.23;62.50
66486;BME280;53303;47.476;8.084;2023-08-21T06:18:03;95992.97;;;24.28;62.86
66486;BME280;53303;47.476;8.084;2023-08-21T06:20:28;95990.47;;;24.24;62.65
66486;BME280;53303;47.476;8.084;2023-08-21T06:22:55;95985.94;;;24.21;62.72
66486;BME280;53303;47.476;8.084;2023-08-21T06:25:23;96003.59;;;24.29;63.08
66486;BME280;53303;47.476;8.084;2023-08-21T06:27:49;95972.09;;;24.10;63.51
66486;BME280;53303;47.476;8.084;2023-08-21T06:30:17;96002.31;;;24.30;63.35
66486;BME280;53303;47.476;8.084;2023-08-21T06:32:43;96016.72;;;24.35;63.46
66486;BME280;53303;47.476;8.084;2023-08-21T06:35:09;95995.28;;;24.24;63.92
66486;BME280;53303;47.476;8.084;2023-08-21T06:37:36;96010.16;;;24.32;63.82
66486;BME280;53303;47.476;8.084;2023-08-21T06:40:17;96007.91;;;24.30;64.45
66486;BME280;53303;47.476;8.084;2023-08-21T06:42:43;95891.06;;;23.47;64.37
66486;BME280;53303;47.476;8.084;2023-08-21T06:45:10;96014.13;;;24.42;63.89
66486;BME280;53303;47.476;8.084;2023-08-21T06:47:38;96018.63;;;24.45;63.18
66486;BME280;53303;47.476;8.084;2023-08-21T06:50:05;96013.53;;;24.49;62.93
66486;BME280;53303;47.476;8.084;2023-08-21T06:52:31;96014.78;;;24.54;62.71
66486;BME280;53303;47.476;8.084;2023-08-21T06:54:56;96014.47;;;24.58;62.38
66486;BME280;53303;47.476;8.084;2023-08-21T06:57:22;95990.44;;;24.49;61.89
66486;BME280;53303;47.476;8.084;2023-08-21T06:59:48;95997.00;;;24.57;61.82
66486;BME280;53303;47.476;8.084;2023-08-21T07:02:13;96013.38;;;24.66;61.97
66486;BME280;53303;47.476;8.084;2023-08-21T07:04:39;96006.03;;;24.63;61.77
66486;BME280;53303;47.476;8.084;2023-08-21T07:07:04;95995.72;;;24.58;61.19
66486;BME280;53303;47.476;8.084;2023-08-21T07:09:30;96018.88;;;24.72;61.14
66486;BME280;53303;47.476;8.084;2023-08-21T07:11:58;95991.63;;;24.59;61.31
66486;BME280;53303;47.476;8.084;2023-08-21T07:14:23;96009.47;;;24.75;61.23
66486;BME280;53303;47.476;8.084;2023-08-21T07:16:49;96001.91;;;24.70;60.84
66486;BME280;53303;47.476;8.084;2023-08-21T07:19:14;96014.22;;;24.80;60.64
66486;BME280;53303;47.476;8.084;2023-08-21T07:21:43;96010.19;;;24.81;60.44
66486;BME280;53303;47.476;8.084;2023-08-21T07:24:08;96002.38;;;24.74;60.71
66486;BME280;53303;47.476;8.084;2023-08-21T07:26:36;96010.22;;;24.76;60.29
66486;BME280;53303;47.476;8.084;2023-08-21T07:29:01;96013.19;;;24.83;60.56
66486;BME280;53303;47.476;8.084;2023-08-21T07:31:31;96015.47;;;24.85;60.30
66486;BME280;53303;47.476;8.084;2023-08-21T07:33:56;95999.06;;;24.76;60.07
66486;BME280;53303;47.476;8.084;2023-08-21T07:36:22;96025.56;;;24.88;60.00
66486;BME280;53303;47.476;8.084;2023-08-21T07:38:49;96020.75;;;24.88;60.01
66486;BME280;53303;47.476;8.084;2023-08-21T07:41:15;96024.06;;;24.87;59.73
66486;BME280;53303;47.476;8.084;2023-08-21T07:43:41;96026.78;;;24.93;59.82
66486;BME280;53303;47.476;8.084;2023-08-21T07:46:12;96006.09;;;24.82;59.86
66486;BME280;53303;47.476;8.084;2023-08-21T07:48:40;96002.03;;;24.83;59.93
66486;BME280;53303;47.476;8.084;2023-08-21T07:51:06;96021.19;;;24.93;59.71
66486;BME280;53303;47.476;8.084;2023-08-21T07:53:32;96029.03;;;24.94;59.49
66486;BME280;53303;47.476;8.084;2023-08-21T07:56:00;96006.59;;;24.81;59.75
66486;BME280;53303;47.476;8.084;2023-08-21T07:58:25;96021.94;;;24.93;59.63
66486;BME280;53303;47.476;8.084;2023-08-21T08:00:51;96022.16;;;24.95;59.79
66486;BME280;53303;47.476;8.084;2023-08-21T08:03:16;96025.19;;;24.97;59.57
66486;BME280;53303;47.476;8.084;2023-08-21T08:05:42;96010.31;;;24.89;59.51
66486;BME280;53303;47.476;8.084;2023-08-21T08:08:08;96025.47;;;24.94;59.42
66486;BME280;53303;47.476;8.084;2023-08-21T08:10:37;96017.66;;;24.92;59.46
66486;BME280;53303;47.476;8.084;2023-08-21T08:13:02;96017.88;;;24.94;59.19
66486;BME280;53303;47.476;8.084;2023-08-21T08:15:30;95987.16;;;24.75;59.39
66486;BME280;53303;47.476;8.084;2023-08-21T08:17:57;96013.56;;;24.93;59.36
66486;BME280;53303;47.476;8.084;2023-08-21T08:20:22;96005.03;;;24.85;59.03
66486;BME280;53303;47.476;8.084;2023-08-21T08:22:48;96009.28;;;24.92;59.16
66486;BME280;53303;47.476;8.084;2023-08-21T08:25:14;96000.94;;;24.86;59.29
66486;BME280;53303;47.476;8.084;2023-08-21T08:27:39;96025.88;;;25.03;59.04
66486;BME280;53303;47.476;8.084;2023-08-21T08:30:06;96023.63;;;25.02;59.00
66486;BME280;53303;47.476;8.084;2023-08-21T08:32:33;96004.75;;;24.89;59.25
66486;BME280;53303;47.476;8.084;2023-08-21T08:34:59;96028.16;;;25.05;59.03
66486;BME280;53303;47.476;8.084;2023-08-21T08:37:24;96024.56;;;25.04;59.17
66486;BME280;53303;47.476;8.084;2023-08-21T08:39:50;95999.59;;;24.93;58.71
66486;BME280;53303;47.476;8.084;2023-08-21T08:42:17;96004.88;;;24.97;59.15
66486;BME280;53303;47.476;8.084;2023-08-21T08:44:43;95999.09;;;24.95;58.68
66486;BME280;53303;47.476;8.084;2023-08-21T08:47:12;96018.47;;;25.06;58.97
66486;BME280;53303;47.476;8.084;2023-08-21T08:49:38;96022.78;;;25.07;58.57
66486;BME280;53303;47.476;8.084;2023-08-21T08:52:04;96009.94;;;24.98;58.72
66486;BME280;53303;47.476;8.084;2023-08-21T08:54:32;96014.41;;;25.07;58.91
66486;BME280;53303;47.476;8.084;2023-08-21T08:57:00;96012.13;;;25.05;58.84
66486;BME280;53303;47.476;8.084;2023-08-21T08:59:25;96000.31;;;24.99;58.51
66486;BME280;53303;47.476;8.084;2023-08-21T09:01:51;95987.69;;;24.93;58.76
66486;BME280;53303;47.476;8.084;2023-08-21T09:04:16;95992.75;;;24.94;58.62
66486;BME280;53303;47.476;8.084;2023-08-21T09:06:44;96011.09;;;25.08;58.85
66486;BME280;53303;47.476;8.084;2023-08-21T09:09:10;96011.84;;;25.09;58.61
66486;BME280;53303;47.476;8.084;2023-08-21T09:11:42;96012.38;;;25.07;58.50
66486;BME280;53303;47.476;8.084;2023-08-21T09:14:09;95994.16;;;25.01;58.53
66486;BME280;53303;47.476;8.084;2023-08-21T09:16:35;95999.44;;;25.04;58.66
66486;BME280;53303;47.476;8.084;2023-08-21T09:19:00;95989.13;;;24.99;58.39
66486;BME280;53303;47.476;8.084;2023-08-21T09:21:27;96010.06;;;25.12;58.49
66486;BME280;53303;47.476;8.084;2023-08-21T09:23:58;96004.97;;;25.10;58.49
66486;BME280;53303;47.476;8.084;2023-08-21T09:26:30;95962.41;;;25.04;59.19
66486;BME280;53303;47.476;8.084;2023-08-21T09:28:58;95966.13;;;25.12;58.97
66486;BME280;53303;47.476;8.084;2023-08-21T09:31:30;95912.03;;;24.77;57.56
66486;BME280;53303;47.476;8.084;2023-08-21T09:33:56;95959.47;;;24.96;56.79
66486;BME280;53303;47.476;8.084;2023-08-21T09:36:22;95960.63;;;25.06;57.51
66486;BME280;53303;47.476;8.084;2023-08-21T09:38:48;95943.41;;;25.02;58.86
66486;BME280;53303;47.476;8.084;2023-08-21T09:41:14;95961.50;;;25.15;59.57
66486;BME280;53303;47.476;8.084;2023-08-21T09:43:42;95954.34;;;25.19;59.62
66486;BME280;53303;47.476;8.084;2023-08-21T09:46:08;95936.22;;;25.07;59.98
66486;BME280;53303;47.476;8.084;2023-08-21T09:48:34;95946.72;;;25.20;59.99
66486;BME280;53303;47.476;8.084;2023-08-21T09:51:00;95959.34;;;25.26;60.22
66486;BME280;53303;47.476;8.084;2023-08-21T09:53:29;95961.81;;;25.30;58.73
66486;BME280;53303;47.476;8.084;2023-08-21T09:55:55;95947.41;;;25.26;56.79
66486;BME280;53303;47.476;8.084;2023-08-21T09:58:22;95950.88;;;25.32;55.08
66486;BME280;53303;47.476;8.084;2023-08-21T10:00:51;95940.06;;;25.23;56.19
66486;BME280;53303;47.476;8.084;2023-08-21T10:03:20;95946.34;;;25.29;57.53
66486;BME280;53303;47.476;8.084;2023-08-21T10:05:47;95946.66;;;25.25;58.48
66486;BME280;53303;47.476;8.084;2023-08-21T10:08:15;95939.03;;;25.26;58.94
66486;BME280;53303;47.476;8.084;2023-08-21T10:10:41;95951.31;;;25.36;59.34
66486;BME280;53303;47.476;8.084;2023-08-21T10:13:07;95952.84;;;25.37;59.51
66486;BME280;53303;47.476;8.084;2023-08-21T10:15:36;95949.50;;;25.39;59.72
66486;BME280;53303;47.476;8.084;2023-08-21T10:18:32;95944.75;;;25.34;60.35
66486;BME280;53303;47.476;8.084;2023-08-21T10:21:17;95945.19;;;25.38;58.13
66486;BME280;53303;47.476;8.084;2023-08-21T10:23:47;95946.94;;;25.41;56.14
66486;BME280;53303;47.476;8.084;2023-08-21T10:26:13;95937.28;;;25.42;54.67
66486;BME280;53303;47.476;8.084;2023-08-21T10:28:55;95934.56;;;25.36;55.14
66486;BME280;53303;47.476;8.084;2023-08-21T10:31:29;95938.34;;;25.39;56.70
66486;BME280;53303;47.476;8.084;2023-08-21T10:33:59;95932.53;;;25.37;57.51
66486;BME280;53303;47.476;8.084;2023-08-21T10:41:56;95926.94;;;25.37;59.39
66486;BME280;53303;47.476;8.084;2023-08-21T10:44:49;95936.06;;;25.37;59.77
66486;BME280;53303;47.476;8.084;2023-08-21T10:47:21;95934.72;;;25.44;59.84
66486;BME280;53303;47.476;8.084;2023-08-21T10:49:52;95932.88;;;25.46;57.58
66486;BME280;53303;47.476;8.084;2023-08-21T10:52:29;95936.97;;;25.45;55.72
66486;BME280;53303;47.476;8.084;2023-08-21T10:54:59;95913.28;;;25.33;54.06
66486;BME280;53303;47.476;8.084;2023-08-21T10:57:30;95933.41;;;25.45;55.38
66486;BME280;53303;47.476;8.084;2023-08-21T11:00:00;95927.81;;;25.45;57.15
66486;BME280;53303;47.476;8.084;2023-08-21T11:02:30;95925.34;;;25.41;57.86
66486;BME280;53303;47.476;8.084;2023-08-21T11:04:58;95936.47;;;25.28;58.55
66486;BME280;53303;47.476;8.084;2023-08-21T11:07:24;95921.56;;;25.39;59.05
66486;BME280;53303;47.476;8.084;2023-08-21T11:09:50;95926.84;;;25.42;58.12
66486;BME280;53303;47.476;8.084;2023-08-21T11:12:18;95928.03;;;25.47;56.37
66486;BME280;53303;47.476;8.084;2023-08-21T11:14:44;95922.75;;;25.43;54.70
66486;BME280;53303;47.476;8.084;2023-08-21T11:17:10;95919.66;;;25.47;55.96
66486;BME280;53303;47.476;8.084;2023-08-21T11:19:37;95903.81;;;25.36;57.01
66486;BME280;53303;47.476;8.084;2023-08-21T11:22:04;95924.50;;;25.46;57.68
66486;BME280;53303;47.476;8.084;2023-08-21T11:24:41;95921.69;;;25.46;58.30
66486;BME280;53303;47.476;8.084;2023-08-21T11:27:08;95919.91;;;25.49;57.35
66486;BME280;53303;47.476;8.084;2023-08-21T11:29:39;95912.13;;;25.42;55.67
66486;BME280;53303;47.476;8.084;2023-08-21T11:32:09;95913.84;;;25.45;53.61
66486;BME280;53303;47.476;8.084;2023-08-21T11:34:35;95907.09;;;25.40;55.07
66486;BME280;53303;47.476;8.084;2023-08-21T11:37:01;95912.03;;;25.48;56.10
66486;BME280;53303;47.476;8.084;2023-08-21T11:39:44;95911.81;;;25.45;57.33
66486;BME280;53303;47.476;8.084;2023-08-21T11:42:11;95888.16;;;25.33;58.04
66486;BME280;53303;47.476;8.084;2023-08-21T11:47:14;95878.78;;;25.31;55.28
66486;BME280;53303;47.476;8.084;2023-08-21T11:49:40;95901.09;;;25.50;53.43
66486;BME280;53303;47.476;8.084;2023-08-21T11:52:10;95891.97;;;25.49;54.38
66486;BME280;53303;47.476;8.084;2023-08-21T11:54:39;95889.91;;;25.50;56.19
66486;BME280;53303;47.476;8.084;2023-08-21T11:57:12;95875.16;;;25.36;57.17
66486;BME280;53303;47.476;8.084;2023-08-21T11:59:38;95899.78;;;25.51;57.75
66486;BME280;53303;47.476;8.084;2023-08-21T12:02:14;95877.50;;;25.32;55.87
66486;BME280;53303;47.476;8.084;2023-08-21T12:04:41;95889.91;;;25.50;54.22
66486;BME280;53303;47.476;8.084;2023-08-21T12:07:09;95885.59;;;25.49;53.46
66486;BME280;53303;47.476;8.084;2023-08-21T12:09:37;95874.63;;;25.37;55.31
66486;BME280;53303;47.476;8.084;2023-08-21T12:12:05;95884.09;;;25.48;56.70
66486;BME280;53303;47.476;8.084;2023-08-21T12:14:33;95881.84;;;25.46;57.88
66486;BME280;53303;47.476;8.084;2023-08-21T12:16:58;95880.00;;;25.49;56.41
66486;BME280;53303;47.476;8.084;2023-08-21T12:19:26;95863.88;;;25.41;54.71
66486;BME280;53303;47.476;8.084;2023-08-21T12:21:51;95864.88;;;25.44;53.25
66486;BME280;53303;47.476;8.084;2023-08-21T12:24:17;95860.22;;;25.33;54.45
66486;BME280;53303;47.476;8.084;2023-08-21T12:26:42;95869.91;;;25.45;56.17
66486;BME280;53303;47.476;8.084;2023-08-21T12:29:10;95872.94;;;25.48;56.38
66486;BME280;53303;47.476;8.084;2023-08-21T12:31:38;95870.13;;;25.48;55.20
66486;BME280;53303;47.476;8.084;2023-08-21T12:34:03;95872.94;;;25.48;54.11
66486;BME280;53303;47.476;8.084;2023-08-21T12:36:29;95868.63;;;25.46;53.05
66486;BME280;53303;47.476;8.084;2023-08-21T12:38:55;95858.19;;;25.47;54.79
66486;BME280;53303;47.476;8.084;2023-08-21T12:41:20;95856.28;;;25.42;56.53
66486;BME280;53303;47.476;8.084;2023-08-21T12:43:46;95862.28;;;25.46;55.27
66486;BME280;53303;47.476;8.084;2023-08-21T12:46:13;95854.31;;;25.37;53.83
66486;BME280;53303;47.476;8.084;2023-08-21T12:48:41;95863.34;;;25.43;52.91
66486;BME280;53303;47.476;8.084;2023-08-21T12:51:07;95860.03;;;25.44;54.18
66486;BME280;53303;47.476;8.084;2023-08-21T12:53:32;95838.41;;;25.32;55.73
66486;BME280;53303;47.476;8.084;2023-08-21T12:55:59;95856.16;;;25.48;55.34
66486;BME280;53303;47.476;8.084;2023-08-21T12:58:24;95853.16;;;25.45;54.13
66486;BME280;53303;47.476;8.084;2023-08-21T13:00:50;95850.38;;;25.45;52.70
66486;BME280;53303;47.476;8.084;2023-08-21T13:03:15;95837.88;;;25.33;51.68
66486;BME280;53303;47.476;8.084;2023-08-21T13:05:41;95832.81;;;25.32;52.86
66486;BME280;53303;47.476;8.084;2023-08-21T13:08:08;95825.28;;;25.26;54.85